createdAt,value
2022-08-28T00:00:30.386Z,95175.28
2022-08-28T00:01:30.387Z,95168.75
2022-08-28T00:02:30.428Z,95171.08
2022-08-28T00:03:30.502Z,95165.31
2022-08-28T00:04:30.372Z,95174.84
2022-08-28T00:05:30.348Z,95171.50
2022-08-28T00:06:30.338Z,95172.26
2022-08-28T00:07:30.340Z,95179.14
2022-08-28T00:08:30.319Z,95179.23
2022-08-28T00:09:30.353Z,95181.54
2022-08-28T00:10:30.315Z,95180.95
2022-08-28T00:11:30.314Z,95180.51
2022-08-28T00:12:30.296Z,95183.45
2022-08-28T00:13:30.295Z,95178.38
2022-08-28T00:14:30.271Z,95179.65
2022-08-28T00:15:30.299Z,95176.31
2022-08-28T00:16:30.333Z,95180.53
2022-08-28T00:17:30.253Z,95180.30
2022-08-28T00:18:30.247Z,95179.36
2022-08-28T00:19:30.245Z,95178.33
2022-08-28T00:20:30.229Z,95178.30
2022-08-28T00:21:30.235Z,95178.67
2022-08-28T00:22:30.195Z,95181.42
2022-08-28T00:23:36.949Z,95180.73
2022-08-28T00:24:30.199Z,95177.71
2022-08-28T00:25:30.176Z,95175.78
2022-08-28T00:26:30.181Z,95170.94
2022-08-28T00:27:30.193Z,95171.88
2022-08-28T00:28:30.162Z,95176.75
2022-08-28T00:29:30.163Z,95171.42
2022-08-28T00:30:30.128Z,95176.44
2022-08-28T00:31:30.158Z,95177.41
2022-08-28T00:32:30.119Z,95179.65
2022-08-28T00:33:30.138Z,95176.90
2022-08-28T00:34:33.168Z,95179.82
2022-08-28T00:35:30.104Z,95178.27
2022-08-28T00:36:30.081Z,95174.84
2022-08-28T00:37:30.093Z,95178.69
2022-08-28T00:38:30.074Z,95178.20
2022-08-28T00:39:30.095Z,95180.00
2022-08-28T00:40:32.842Z,95174.50
2022-08-28T00:41:30.042Z,95176.55
2022-08-28T00:42:30.048Z,95175.98
2022-08-28T00:43:30.023Z,95179.32
2022-08-28T00:44:30.014Z,95181.54
2022-08-28T00:45:30.045Z,95182.20
2022-08-28T00:46:30.088Z,95183.78
2022-08-28T00:47:30.008Z,95185.30
2022-08-28T00:48:29.984Z,95180.31
2022-08-28T00:49:29.976Z,95180.14
2022-08-28T00:50:29.980Z,95173.98
2022-08-28T00:51:29.990Z,95178.30
2022-08-28T00:52:29.947Z,95174.25
2022-08-28T00:53:32.866Z,95175.38
2022-08-28T00:54:29.928Z,95170.98
2022-08-28T00:55:29.930Z,95184.48
2022-08-28T00:56:29.909Z,95175.30
2022-08-28T00:57:29.930Z,95170.94
2022-08-28T00:58:29.899Z,95171.73
2022-08-28T00:59:29.893Z,95170.25
2022-08-28T01:00:29.892Z,95172.89
2022-08-28T01:01:29.939Z,95171.04
2022-08-28T01:02:29.953Z,95170.21
2022-08-28T01:03:29.895Z,95168.56
2022-08-28T01:04:29.856Z,95167.91
2022-08-28T01:05:29.856Z,95170.48
2022-08-28T01:06:29.837Z,95162.20
2022-08-28T01:07:29.837Z,95168.22
2022-08-28T01:08:30.379Z,95163.13
2022-08-28T01:09:29.822Z,95165.06
2022-08-28T01:10:29.808Z,95161.09
2022-08-28T01:11:29.809Z,95164.01
2022-08-28T01:12:29.790Z,95167.97
2022-08-28T01:13:29.788Z,95161.89
2022-08-28T01:14:29.770Z,95161.30
2022-08-28T01:15:29.871Z,95160.27
2022-08-28T01:16:31.639Z,95160.34
2022-08-28T01:17:29.747Z,95167.05
2022-08-28T01:18:29.727Z,95158.21
2022-08-28T01:19:29.720Z,95160.34
2022-08-28T01:20:29.722Z,95164.91
2022-08-28T01:21:29.728Z,95161.55
2022-08-28T01:22:30.979Z,95160.72
2022-08-28T01:23:29.704Z,95155.73
2022-08-28T01:24:29.671Z,95162.78
2022-08-28T01:25:29.685Z,95157.59
2022-08-28T01:26:29.679Z,95157.25
2022-08-28T01:27:29.672Z,95165.02
2022-08-28T01:28:29.642Z,95160.10
2022-08-28T01:29:29.632Z,95157.42
2022-08-28T01:30:29.624Z,95162.23
2022-08-28T01:31:29.676Z,95165.02
2022-08-28T01:32:29.619Z,95157.80
2022-08-28T01:33:29.884Z,95162.06
2022-08-28T01:34:29.593Z,95163.16
2022-08-28T01:35:29.585Z,95160.84
2022-08-28T01:36:29.589Z,95157.55
2022-08-28T01:37:29.577Z,95165.21
2022-08-28T01:38:29.556Z,95160.06
2022-08-28T01:39:29.587Z,95157.30
2022-08-28T01:40:29.591Z,95162.73
2022-08-28T01:41:29.552Z,95158.16
2022-08-28T01:42:29.528Z,95160.26
2022-08-28T01:43:29.532Z,95155.98
2022-08-28T01:44:29.509Z,95154.27
2022-08-28T01:45:29.519Z,95158.42
2022-08-28T01:46:29.534Z,95148.89
2022-08-28T01:47:29.502Z,95149.27
2022-08-28T01:48:29.485Z,95147.89
2022-08-28T01:49:29.515Z,95145.38
2022-08-28T01:50:29.475Z,95150.59
2022-08-28T01:51:29.486Z,95150.21
2022-08-28T01:52:29.454Z,95151.00
2022-08-28T01:53:32.729Z,95148.08
2022-08-28T01:54:29.424Z,95148.70
2022-08-28T01:55:29.413Z,95149.22
2022-08-28T01:56:29.405Z,95146.03
2022-08-28T01:57:29.446Z,95145.52
2022-08-28T01:58:30.396Z,95146.81
2022-08-28T01:59:29.385Z,95148.73
2022-08-28T02:00:29.386Z,95149.42
2022-08-28T02:01:29.379Z,95145.02
2022-08-28T02:02:29.356Z,95146.50
2022-08-28T02:03:29.380Z,95146.91
2022-08-28T02:04:31.859Z,95153.17
2022-08-28T02:05:29.349Z,95145.88
2022-08-28T02:06:29.319Z,95143.84
2022-08-28T02:07:29.330Z,95144.70
2022-08-28T02:08:29.313Z,95149.78
2022-08-28T02:09:29.322Z,95146.66
2022-08-28T02:10:29.302Z,95144.67
2022-08-28T02:11:29.294Z,95147.22
2022-08-28T02:12:29.270Z,95147.81
2022-08-28T02:13:29.274Z,95142.19
2022-08-28T02:14:29.266Z,95144.30
2022-08-28T02:15:29.338Z,95143.50
2022-08-28T02:16:29.247Z,95145.02
2022-08-28T02:17:29.248Z,95150.69
2022-08-28T02:18:29.243Z,95146.27
2022-08-28T02:19:29.227Z,95146.20
2022-08-28T02:20:29.215Z,95142.63
2022-08-28T02:21:29.227Z,95142.70
2022-08-28T02:22:29.198Z,95139.03
2022-08-28T02:23:29.175Z,95142.92
2022-08-28T02:24:29.179Z,95138.67
2022-08-28T02:25:29.169Z,95141.34
2022-08-28T02:26:29.146Z,95138.22
2022-08-28T02:27:29.168Z,95143.55
2022-08-28T02:28:29.140Z,95147.85
2022-08-28T02:29:29.131Z,95144.63
2022-08-28T02:30:29.116Z,95144.82
2022-08-28T02:31:29.158Z,95144.03
2022-08-28T02:32:29.113Z,95142.29
2022-08-28T02:33:29.123Z,95143.91
2022-08-28T02:34:29.093Z,95143.22
2022-08-28T02:35:29.093Z,95142.88
2022-08-28T02:36:29.076Z,95148.27
2022-08-28T02:37:29.073Z,95145.66
2022-08-28T02:38:29.049Z,95142.81
2022-08-28T02:39:29.070Z,95146.89
2022-08-28T02:40:29.087Z,95145.55
2022-08-28T02:41:29.022Z,95147.98
2022-08-28T02:42:29.012Z,95145.79
2022-08-28T02:43:29.012Z,95144.00
2022-08-28T02:44:29.007Z,95150.63
2022-08-28T02:45:29.025Z,95149.19
2022-08-28T02:46:29.037Z,95149.02
2022-08-28T02:47:28.976Z,95150.53
2022-08-28T02:48:28.976Z,95143.14
2022-08-28T02:49:31.311Z,95149.88
2022-08-28T02:50:28.961Z,95145.06
2022-08-28T02:51:28.956Z,95139.47
2022-08-28T02:52:28.941Z,95140.59
2022-08-28T02:53:28.942Z,95139.39
2022-08-28T02:54:28.911Z,95141.62
2022-08-28T02:55:33.618Z,95138.98
2022-08-28T02:56:28.911Z,95143.27
2022-08-28T02:57:28.922Z,95139.05
2022-08-28T02:58:28.883Z,95138.46
2022-08-28T02:59:28.869Z,95137.67
2022-08-28T03:00:28.873Z,95141.19
2022-08-28T03:01:28.975Z,95136.41
2022-08-28T03:02:28.955Z,95134.61
2022-08-28T03:03:28.883Z,95138.42
2022-08-28T03:04:28.835Z,95135.88
2022-08-28T03:05:28.823Z,95138.10
2022-08-28T03:06:28.825Z,95133.30
2022-08-28T03:07:28.818Z,95132.36
2022-08-28T03:08:28.792Z,95136.07
2022-08-28T03:09:28.813Z,95132.22
2022-08-28T03:10:28.788Z,95134.62
2022-08-28T03:11:28.778Z,95130.94
2022-08-28T03:12:28.764Z,95131.31
2022-08-28T03:13:28.763Z,95131.17
2022-08-28T03:14:28.745Z,95134.46
2022-08-28T03:15:28.746Z,95128.11
2022-08-28T03:16:28.825Z,95136.52
2022-08-28T03:17:28.718Z,95132.43
2022-08-28T03:18:28.708Z,95131.74
2022-08-28T03:19:28.712Z,95130.59
2022-08-28T03:20:28.689Z,95130.88
2022-08-28T03:21:28.712Z,95137.64
2022-08-28T03:22:28.679Z,95132.26
2022-08-28T03:23:28.664Z,95134.96
2022-08-28T03:24:28.673Z,95134.49
2022-08-28T03:25:28.650Z,95137.37
2022-08-28T03:26:28.640Z,95140.66
2022-08-28T03:27:28.655Z,95140.83
2022-08-28T03:28:28.628Z,95145.23
2022-08-28T03:29:28.627Z,95144.34
2022-08-28T03:30:28.657Z,95142.39
2022-08-28T03:31:28.606Z,95139.28
2022-08-28T03:32:29.341Z,95146.55
2022-08-28T03:33:28.607Z,95140.67
2022-08-28T03:34:28.575Z,95146.77
2022-08-28T03:35:28.564Z,95149.07
2022-08-28T03:36:28.568Z,95151.03
2022-08-28T03:37:28.546Z,95147.53
2022-08-28T03:38:28.549Z,95149.05
2022-08-28T03:39:28.556Z,95148.68
2022-08-28T03:40:28.573Z,95147.31
2022-08-28T03:41:28.507Z,95150.96
2022-08-28T03:42:28.521Z,95153.82
2022-08-28T03:43:28.508Z,95148.33
2022-08-28T03:44:28.502Z,95147.44
2022-08-28T03:45:28.489Z,95147.53
2022-08-28T03:46:28.578Z,95149.26
2022-08-28T03:47:28.473Z,95144.14
2022-08-28T03:48:28.478Z,95147.48
2022-08-28T03:49:28.440Z,95147.06
2022-08-28T03:50:28.502Z,95149.16
2022-08-28T03:51:29.213Z,95156.62
2022-08-28T03:52:28.422Z,95153.61
2022-08-28T03:53:28.415Z,95154.37
2022-08-28T03:54:28.412Z,95148.95
2022-08-28T03:55:28.407Z,95148.38
2022-08-28T03:56:28.410Z,95152.75
2022-08-28T03:57:28.407Z,95149.76
2022-08-28T03:58:28.375Z,95151.64
2022-08-28T03:59:31.668Z,95158.34
2022-08-28T04:00:28.354Z,95156.40
2022-08-28T04:01:28.393Z,95157.60
2022-08-28T04:02:28.336Z,95156.94
2022-08-28T04:03:28.385Z,95156.19
2022-08-28T04:04:28.332Z,95158.00
2022-08-28T04:05:28.306Z,95161.95
2022-08-28T04:06:28.318Z,95158.86
2022-08-28T04:07:28.287Z,95161.47
2022-08-28T04:08:28.288Z,95152.53
2022-08-28T04:09:28.296Z,95156.11
2022-08-28T04:10:28.282Z,95154.30
2022-08-28T04:11:28.269Z,95152.20
2022-08-28T04:12:28.251Z,95155.40
2022-08-28T04:13:28.238Z,95149.53
2022-08-28T04:14:28.231Z,95153.30
2022-08-28T04:15:28.240Z,95153.30
2022-08-28T04:16:28.271Z,95153.28
2022-08-28T04:17:28.201Z,95151.19
2022-08-28T04:18:28.216Z,95157.71
2022-08-28T04:19:28.191Z,95155.73
2022-08-28T04:20:28.196Z,95156.31
2022-08-28T04:21:28.207Z,95151.41
2022-08-28T04:22:28.164Z,95151.26
2022-08-28T04:23:28.153Z,95152.59
2022-08-28T04:24:28.154Z,95150.02
2022-08-28T04:25:28.144Z,95154.34
2022-08-28T04:26:28.148Z,95152.28
2022-08-28T04:27:28.151Z,95154.54
2022-08-28T04:28:28.130Z,95157.73
2022-08-28T04:29:28.110Z,95159.72
2022-08-28T04:30:28.110Z,95155.70
2022-08-28T04:31:32.113Z,95155.88
2022-08-28T04:32:28.091Z,95157.95
2022-08-28T04:33:28.091Z,95153.66
2022-08-28T04:34:28.082Z,95152.73
2022-08-28T04:35:28.049Z,95155.34
2022-08-28T04:36:28.049Z,95152.69
2022-08-28T04:37:28.062Z,95149.43
2022-08-28T04:38:28.044Z,95156.81
2022-08-28T04:39:28.055Z,95152.62
2022-08-28T04:40:28.053Z,95156.43
2022-08-28T04:41:28.015Z,95156.26
2022-08-28T04:42:28.013Z,95157.43
2022-08-28T04:43:27.982Z,95155.81
2022-08-28T04:44:27.997Z,95160.38
2022-08-28T04:45:28.058Z,95159.84
2022-08-28T04:46:31.077Z,95159.34
2022-08-28T04:47:27.965Z,95165.22
2022-08-28T04:48:27.958Z,95167.31
2022-08-28T04:49:27.934Z,95165.34
2022-08-28T04:50:27.939Z,95161.84
2022-08-28T04:51:27.926Z,95165.70
2022-08-28T04:52:27.928Z,95166.31
2022-08-28T04:53:27.910Z,95164.59
2022-08-28T04:54:27.899Z,95163.05
2022-08-28T04:55:52.267Z,95169.06
2022-08-28T04:56:27.880Z,95168.55
2022-08-28T04:57:27.868Z,95173.08
2022-08-28T04:58:27.871Z,95173.50
2022-08-28T04:59:27.862Z,95173.36
2022-08-28T05:00:27.862Z,95169.55
2022-08-28T05:01:27.906Z,95168.20
2022-08-28T05:02:27.902Z,95173.42
2022-08-28T05:03:27.830Z,95176.45
2022-08-28T05:04:27.826Z,95175.76
2022-08-28T05:05:27.815Z,95174.04
2022-08-28T05:06:28.064Z,95175.96
2022-08-28T05:07:27.798Z,95175.06
2022-08-28T05:08:27.786Z,95178.06
2022-08-28T05:09:27.784Z,95174.38
2022-08-28T05:10:27.777Z,95177.13
2022-08-28T05:11:34.382Z,95180.16
2022-08-28T05:12:27.762Z,95179.61
2022-08-28T05:13:27.738Z,95178.58
2022-08-28T05:14:27.738Z,95180.08
2022-08-28T05:15:27.749Z,95179.97
2022-08-28T05:16:27.760Z,95182.45
2022-08-28T05:17:27.696Z,95186.40
2022-08-28T05:18:27.709Z,95181.83
2022-08-28T05:19:27.676Z,95182.61
2022-08-28T05:20:27.690Z,95184.75
2022-08-28T05:21:27.683Z,95179.94
2022-08-28T05:22:27.671Z,95179.28
2022-08-28T05:23:27.650Z,95180.14
2022-08-28T05:24:27.652Z,95184.64
2022-08-28T05:25:27.632Z,95181.44
2022-08-28T05:26:29.684Z,95189.26
2022-08-28T05:27:27.630Z,95185.55
2022-08-28T05:28:27.624Z,95185.58
2022-08-28T05:29:27.605Z,95188.02
2022-08-28T05:30:27.606Z,95185.95
2022-08-28T05:31:27.630Z,95191.75
2022-08-28T05:32:27.586Z,95194.95
2022-08-28T05:33:27.596Z,95190.38
2022-08-28T05:34:27.577Z,95196.52
2022-08-28T05:35:27.557Z,95197.92
2022-08-28T05:36:32.805Z,95193.97
2022-08-28T05:37:27.546Z,95199.24
2022-08-28T05:38:27.538Z,95199.27
2022-08-28T05:39:27.539Z,95198.09
2022-08-28T05:40:27.536Z,95203.42
2022-08-28T05:41:27.495Z,95208.48
2022-08-28T05:42:30.701Z,95206.23
2022-08-28T05:43:27.492Z,95205.31
2022-08-28T05:44:27.496Z,95207.86
2022-08-28T05:45:27.503Z,95208.38
2022-08-28T05:46:27.461Z,95211.39
2022-08-28T05:47:27.452Z,95208.92
2022-08-28T05:48:27.452Z,95213.05
2022-08-28T05:49:27.429Z,95209.92
2022-08-28T05:50:27.429Z,95208.06
2022-08-28T05:51:27.561Z,95213.48
2022-08-28T05:52:27.400Z,95211.43
2022-08-28T05:53:27.404Z,95211.45
2022-08-28T05:54:29.079Z,95211.45
2022-08-28T05:55:27.387Z,95214.06
2022-08-28T05:56:27.385Z,95214.51
2022-08-28T05:57:27.393Z,95215.71
2022-08-28T05:58:27.367Z,95212.20
2022-08-28T05:59:27.357Z,95211.66
2022-08-28T06:00:27.334Z,95213.94
2022-08-28T06:01:27.358Z,95213.00
2022-08-28T06:02:27.323Z,95213.45
2022-08-28T06:03:27.338Z,95212.10
2022-08-28T06:04:27.402Z,95216.05
2022-08-28T06:05:27.301Z,95219.84
2022-08-28T06:06:27.285Z,95220.17
2022-08-28T06:07:27.288Z,95216.50
2022-08-28T06:08:27.280Z,95217.80
2022-08-28T06:09:29.720Z,95215.37
2022-08-28T06:10:27.261Z,95210.91
2022-08-28T06:11:27.256Z,95213.20
2022-08-28T06:12:27.239Z,95216.40
2022-08-28T06:13:27.219Z,95222.44
2022-08-28T06:14:27.232Z,95219.86
2022-08-28T06:15:27.220Z,95223.23
2022-08-28T06:16:27.247Z,95223.70
2022-08-28T06:17:27.202Z,95232.17
2022-08-28T06:18:27.180Z,95227.11
2022-08-28T06:19:27.175Z,95228.14
2022-08-28T06:20:27.183Z,95229.66
2022-08-28T06:21:27.186Z,95232.05
2022-08-28T06:22:27.165Z,95233.59
2022-08-28T06:23:27.140Z,95231.09
2022-08-28T06:24:27.149Z,95234.77
2022-08-28T06:25:27.136Z,95231.99
2022-08-28T06:26:27.114Z,95231.97
2022-08-28T06:27:27.124Z,95228.17
2022-08-28T06:28:27.112Z,95234.27
2022-08-28T06:29:27.099Z,95229.16
2022-08-28T06:30:27.084Z,95232.97
2022-08-28T06:31:29.747Z,95236.88
2022-08-28T06:32:27.107Z,95238.11
2022-08-28T06:33:27.070Z,95235.98
2022-08-28T06:34:27.047Z,95242.16
2022-08-28T06:35:27.037Z,95239.56
2022-08-28T06:36:27.028Z,95236.32
2022-08-28T06:37:27.018Z,95240.10
2022-08-28T06:38:27.023Z,95242.61
2022-08-28T06:39:27.032Z,95243.06
2022-08-28T06:40:27.019Z,95244.20
2022-08-28T06:41:26.989Z,95242.09
2022-08-28T06:42:26.994Z,95243.47
2022-08-28T06:43:26.982Z,95243.16
2022-08-28T06:44:26.962Z,95241.39
2022-08-28T06:45:26.985Z,95243.52
2022-08-28T06:46:27.009Z,95247.48
2022-08-28T06:47:26.946Z,95244.86
2022-08-28T06:48:26.932Z,95243.41
2022-08-28T06:49:26.913Z,95245.84
2022-08-28T06:50:26.927Z,95244.23
2022-08-28T06:51:26.937Z,95250.10
2022-08-28T06:52:26.909Z,95250.41
2022-08-28T06:53:26.898Z,95250.20
2022-08-28T06:54:26.885Z,95254.57
2022-08-28T06:55:26.879Z,95252.78
2022-08-28T06:56:27.253Z,95250.86
2022-08-28T06:57:26.866Z,95256.86
2022-08-28T06:58:26.857Z,95254.19
2022-08-28T06:59:26.841Z,95253.33
2022-08-28T07:00:26.827Z,95252.49
2022-08-28T07:01:26.887Z,95252.25
2022-08-28T07:02:28.318Z,95254.34
2022-08-28T07:03:26.833Z,95258.35
2022-08-28T07:04:26.810Z,95261.58
2022-08-28T07:05:26.780Z,95261.58
2022-08-28T07:06:26.793Z,95257.80
2022-08-28T07:07:31.705Z,95259.45
2022-08-28T07:08:26.763Z,95260.60
2022-08-28T07:09:26.774Z,95262.01
2022-08-28T07:10:26.756Z,95265.86
2022-08-28T07:11:26.731Z,95264.96
2022-08-28T07:12:26.735Z,95265.05
2022-08-28T07:13:29.190Z,95268.52
2022-08-28T07:14:26.880Z,95270.69
2022-08-28T07:15:26.727Z,95267.55
2022-08-28T07:16:26.763Z,95268.69
2022-08-28T07:17:26.675Z,95268.16
2022-08-28T07:18:26.688Z,95268.86
2022-08-28T07:19:26.669Z,95273.88
2022-08-28T07:20:26.656Z,95266.48
2022-08-28T07:21:26.678Z,95270.14
2022-08-28T07:22:26.647Z,95270.73
2022-08-28T07:23:26.640Z,95275.81
2022-08-28T07:24:26.629Z,95271.15
2022-08-28T07:25:26.608Z,95271.89
2022-08-28T07:26:26.612Z,95276.88
2022-08-28T07:27:26.618Z,95274.12
2022-08-28T07:28:26.587Z,95273.20
2022-08-28T07:29:26.593Z,95275.36
2022-08-28T07:30:26.583Z,95272.75
2022-08-28T07:31:26.651Z,95276.12
2022-08-28T07:32:26.550Z,95272.23
2022-08-28T07:33:26.585Z,95279.95
2022-08-28T07:34:26.929Z,95276.77
2022-08-28T07:35:26.532Z,95279.55
2022-08-28T07:36:29.812Z,95277.85
2022-08-28T07:37:26.515Z,95273.03
2022-08-28T07:38:26.515Z,95272.48
2022-08-28T07:39:26.519Z,95275.33
2022-08-28T07:40:26.532Z,95273.84
2022-08-28T07:41:26.484Z,95273.72
2022-08-28T07:42:26.473Z,95271.97
2022-08-28T07:43:26.465Z,95273.72
2022-08-28T07:44:26.459Z,95270.69
2022-08-28T07:45:26.466Z,95272.19
2022-08-28T07:46:26.436Z,95276.89
2022-08-28T07:47:26.440Z,95273.31
2022-08-28T07:48:26.417Z,95277.96
2022-08-28T07:49:26.431Z,95276.83
2022-08-28T07:50:26.411Z,95272.77
2022-08-28T07:51:26.422Z,95279.58
2022-08-28T07:52:26.379Z,95276.69
2022-08-28T07:53:26.392Z,95274.77
2022-08-28T07:54:26.381Z,95275.77
2022-08-28T07:55:26.360Z,95274.70
2022-08-28T07:56:26.364Z,95274.20
2022-08-28T07:57:26.350Z,95283.41
2022-08-28T07:58:26.330Z,95278.07
2022-08-28T07:59:26.347Z,95283.42
2022-08-28T08:00:26.325Z,95286.34
2022-08-28T08:01:26.338Z,95289.53
2022-08-28T08:02:26.307Z,95285.09
2022-08-28T08:03:26.461Z,95288.91
2022-08-28T08:04:26.297Z,95287.02
2022-08-28T08:05:26.275Z,95291.77
2022-08-28T08:06:26.277Z,95286.34
2022-08-28T08:07:26.264Z,95288.40
2022-08-28T08:08:26.244Z,95291.25
2022-08-28T08:09:26.256Z,95294.35
2022-08-28T08:10:26.248Z,95289.53
2022-08-28T08:11:26.240Z,95290.59
2022-08-28T08:12:26.216Z,95289.12
2022-08-28T08:13:26.223Z,95298.17
2022-08-28T08:14:26.218Z,95296.35
2022-08-28T08:15:30.702Z,95292.89
2022-08-28T08:16:26.245Z,95296.05
2022-08-28T08:17:26.178Z,95295.95
2022-08-28T08:18:26.159Z,95300.28
2022-08-28T08:19:26.160Z,95299.97
2022-08-28T08:20:26.153Z,95298.56
2022-08-28T08:21:30.072Z,95299.97
2022-08-28T08:22:26.144Z,95300.20
2022-08-28T08:23:26.135Z,95304.64
2022-08-28T08:24:26.778Z,95303.98
2022-08-28T08:25:26.112Z,95302.45
2022-08-28T08:26:26.093Z,95305.66
2022-08-28T08:27:26.126Z,95306.09
2022-08-28T08:28:26.087Z,95302.66
2022-08-28T08:29:26.074Z,95301.38
2022-08-28T08:30:26.064Z,95302.61
2022-08-28T08:31:26.117Z,95308.53
2022-08-28T08:32:26.045Z,95303.12
2022-08-28T08:33:26.069Z,95307.38
2022-08-28T08:34:26.026Z,95311.00
2022-08-28T08:35:26.026Z,95310.66
2022-08-28T08:36:26.006Z,95311.72
2022-08-28T08:37:26.007Z,95313.06
2022-08-28T08:38:25.996Z,95313.53
2022-08-28T08:39:26.022Z,95315.16
2022-08-28T08:40:26.060Z,95315.42
2022-08-28T08:41:25.977Z,95315.59
2022-08-28T08:42:25.958Z,95318.25
2022-08-28T08:43:25.972Z,95319.45
2022-08-28T08:44:33.825Z,95314.42
2022-08-28T08:45:25.973Z,95319.88
2022-08-28T08:46:26.028Z,95315.61
2022-08-28T08:47:25.934Z,95315.27
2022-08-28T08:48:25.911Z,95313.72
2022-08-28T08:49:25.916Z,95317.23
2022-08-28T08:50:25.908Z,95318.22
2022-08-28T08:51:25.905Z,95320.93
2022-08-28T08:52:25.873Z,95321.98
2022-08-28T08:53:25.873Z,95316.86
2022-08-28T08:54:25.853Z,95321.84
2022-08-28T08:55:25.869Z,95322.70
2022-08-28T08:56:34.938Z,95324.28
2022-08-28T08:57:25.846Z,95329.74
2022-08-28T08:58:25.840Z,95320.89
2022-08-28T08:59:25.830Z,95329.35
2022-08-28T09:00:25.821Z,95320.50
2022-08-28T09:01:25.881Z,95332.11
2022-08-28T09:02:31.283Z,95327.11
2022-08-28T09:04:51.763Z,95333.07
2022-08-28T09:05:51.730Z,95336.06
2022-08-28T09:06:51.719Z,95335.55
2022-08-28T09:07:53.282Z,95333.30
2022-08-28T09:08:51.700Z,95332.92
2022-08-28T09:09:51.699Z,95331.59
2022-08-28T09:10:51.701Z,95333.19
2022-08-28T09:11:56.465Z,95325.27
2022-08-28T09:12:51.670Z,95336.78
2022-08-28T09:13:51.662Z,95333.00
2022-08-28T09:14:51.663Z,95330.27
2022-08-28T09:15:51.676Z,95327.69
2022-08-28T09:16:51.664Z,95329.56
2022-08-28T09:17:51.625Z,95324.45
2022-08-28T09:18:51.613Z,95324.33
2022-08-28T09:19:51.625Z,95322.73
2022-08-28T09:20:51.595Z,95325.88
2022-08-28T09:21:51.594Z,95324.75
2022-08-28T09:22:51.596Z,95328.41
2022-08-28T09:23:51.577Z,95330.20
2022-08-28T09:24:51.566Z,95330.65
2022-08-28T09:25:51.734Z,95326.54
2022-08-28T09:26:51.547Z,95326.59
2022-08-28T09:27:51.552Z,95325.45
2022-08-28T09:28:51.548Z,95325.33
2022-08-28T09:29:51.533Z,95335.16
2022-08-28T09:30:51.533Z,95330.25
2022-08-28T09:31:51.520Z,95331.09
2022-08-28T09:32:51.499Z,95332.54
2022-08-28T09:33:51.489Z,95333.55
2022-08-28T09:34:51.484Z,95332.98
2022-08-28T09:35:51.471Z,95326.80
2022-08-28T09:36:51.455Z,95330.38
2022-08-28T09:37:51.467Z,95329.95
2022-08-28T09:38:51.454Z,95329.31
2022-08-28T09:39:51.447Z,95324.07
2022-08-28T09:40:51.443Z,95330.39
2022-08-28T09:41:51.427Z,95328.03
2022-08-28T09:42:51.407Z,95333.05
2022-08-28T09:43:51.394Z,95329.45
2022-08-28T09:44:51.898Z,95331.57
2022-08-28T09:45:51.496Z,95330.09
2022-08-28T09:46:51.401Z,95331.00
2022-08-28T09:47:51.366Z,95332.26
2022-08-28T09:48:51.370Z,95330.19
2022-08-28T09:49:51.361Z,95333.22
2022-08-28T09:50:51.335Z,95338.22
2022-08-28T09:51:51.341Z,95333.84
2022-08-28T09:52:51.342Z,95330.98
2022-08-28T09:53:51.322Z,95330.02
2022-08-28T09:54:51.299Z,95330.28
2022-08-28T09:55:51.310Z,95335.28
2022-08-28T09:56:51.294Z,95327.70
2022-08-28T09:57:51.270Z,95331.84
2022-08-28T09:58:51.283Z,95333.14
2022-08-28T09:59:51.261Z,95329.56
2022-08-28T10:00:51.255Z,95328.58
2022-08-28T10:01:51.287Z,95330.20
2022-08-28T10:02:51.236Z,95325.67
2022-08-28T10:03:51.223Z,95323.17
2022-08-28T10:04:51.243Z,95324.62
2022-08-28T10:05:51.204Z,95329.22
2022-08-28T10:06:51.195Z,95330.43
2022-08-28T10:07:51.185Z,95334.64
2022-08-28T10:08:51.175Z,95331.09
2022-08-28T10:09:51.185Z,95333.34
2022-08-28T10:10:51.175Z,95331.45
2022-08-28T10:11:51.169Z,95331.98
2022-08-28T10:12:51.150Z,95331.80
2022-08-28T10:13:51.150Z,95341.16
2022-08-28T10:14:51.127Z,95333.55
2022-08-28T10:15:51.147Z,95332.95
2022-08-28T10:16:51.142Z,95332.28
2022-08-28T10:17:51.113Z,95333.39
2022-08-28T10:18:51.090Z,95329.70
2022-08-28T10:19:51.080Z,95328.83
2022-08-28T10:20:51.072Z,95326.16
2022-08-28T10:21:51.073Z,95327.52
2022-08-28T10:22:51.085Z,95325.79
2022-08-28T10:23:51.051Z,95325.42
2022-08-28T10:24:51.045Z,95324.14
2022-08-28T10:25:51.032Z,95328.89
2022-08-28T10:26:51.026Z,95330.05
2022-08-28T10:27:51.026Z,95331.14
2022-08-28T10:28:51.011Z,95328.95
2022-08-28T10:29:50.994Z,95328.42
2022-08-28T10:30:51.025Z,95325.80
2022-08-28T10:31:50.989Z,95328.60
2022-08-28T10:32:50.978Z,95328.06
2022-08-28T10:33:50.977Z,95324.56
2022-08-28T10:34:50.969Z,95325.72
2022-08-28T10:35:50.950Z,95329.72
2022-08-28T10:36:50.927Z,95322.16
2022-08-28T10:37:50.941Z,95323.42
2022-08-28T10:38:51.336Z,95320.09
2022-08-28T10:39:50.913Z,95326.80
2022-08-28T10:40:50.929Z,95323.75
2022-08-28T10:41:50.936Z,95327.34
2022-08-28T10:42:50.881Z,95323.19
2022-08-28T10:43:50.869Z,95323.77
2022-08-28T10:44:50.868Z,95319.93
2022-08-28T10:45:50.855Z,95318.44
2022-08-28T10:46:50.875Z,95324.04
2022-08-28T10:47:50.831Z,95319.64
2022-08-28T10:48:50.843Z,95316.69
2022-08-28T10:49:50.826Z,95316.17
2022-08-28T10:50:50.826Z,95320.53
2022-08-28T10:51:51.322Z,95313.16
2022-08-28T10:52:50.803Z,95317.37
2022-08-28T10:53:50.782Z,95311.33
2022-08-28T10:54:50.788Z,95314.64
2022-08-28T10:55:50.765Z,95309.33
2022-08-28T10:56:56.487Z,95318.88
2022-08-28T10:57:50.760Z,95312.84
2022-08-28T10:58:50.746Z,95311.94
2022-08-28T10:59:50.725Z,95311.92
2022-08-28T11:00:50.727Z,95310.27
2022-08-28T11:01:50.773Z,95308.08
2022-08-28T11:02:50.750Z,95314.29
2022-08-28T11:03:50.689Z,95311.85
2022-08-28T11:04:51.863Z,95312.79
2022-08-28T11:05:53.790Z,95313.39
2022-08-28T11:06:50.672Z,95309.04
2022-08-28T11:07:50.658Z,95311.09
2022-08-28T11:08:50.651Z,95311.27
2022-08-28T11:09:50.654Z,95311.67
2022-08-28T11:10:50.664Z,95310.83
2022-08-28T11:11:50.636Z,95312.39
2022-08-28T11:12:50.612Z,95316.66
2022-08-28T11:13:50.617Z,95313.84
2022-08-28T11:14:50.603Z,95313.82
2022-08-28T11:15:50.583Z,95321.26
2022-08-28T11:16:50.686Z,95318.23
2022-08-28T11:17:50.564Z,95322.19
2022-08-28T11:18:50.579Z,95317.98
2022-08-28T11:19:52.547Z,95319.42
2022-08-28T11:20:50.545Z,95315.80
2022-08-28T11:21:50.535Z,95315.28
2022-08-28T11:22:50.559Z,95316.77
2022-08-28T11:23:50.530Z,95308.33
2022-08-28T11:24:50.507Z,95318.62
2022-08-28T11:25:50.511Z,95316.45
2022-08-28T11:26:50.498Z,95313.16
2022-08-28T11:27:50.478Z,95308.33
2022-08-28T11:28:50.496Z,95310.23
2022-08-28T11:29:50.473Z,95314.41
2022-08-28T11:30:50.553Z,95310.63
2022-08-28T11:31:50.451Z,95311.30
2022-08-28T11:32:50.453Z,95311.19
2022-08-28T11:33:50.430Z,95310.23
2022-08-28T11:34:50.473Z,95309.08
2022-08-28T11:35:50.412Z,95309.20
2022-08-28T11:36:50.403Z,95304.16
2022-08-28T11:37:50.406Z,95303.77
2022-08-28T11:38:50.396Z,95305.61
2022-08-28T11:39:50.373Z,95300.81
2022-08-28T11:40:50.395Z,95295.83
2022-08-28T11:41:50.368Z,95298.61
2022-08-28T11:42:50.354Z,95299.42
2022-08-28T11:43:50.356Z,95295.06
2022-08-28T11:44:50.351Z,95300.11
2022-08-28T11:45:50.357Z,95299.83